createdAt,value
2022-11-04T00:00:19.493Z,87.26
2022-11-04T00:01:19.478Z,87.67
2022-11-04T00:02:19.583Z,87.67
2022-11-04T00:03:19.658Z,87.67
2022-11-04T00:04:19.759Z,87.67
2022-11-04T00:05:19.833Z,87.77
2022-11-04T00:06:19.891Z,87.98
2022-11-04T00:07:19.985Z,87.67
2022-11-04T00:08:20.063Z,87.57
2022-11-04T00:09:20.175Z,87.77
2022-11-04T00:10:20.217Z,87.88
2022-11-04T00:11:20.307Z,88.08
2022-11-04T00:12:20.384Z,88.39
2022-11-04T00:13:20.489Z,88.59
2022-11-04T00:14:20.568Z,88.39
2022-11-04T00:15:20.638Z,88.08
2022-11-04T00:16:20.721Z,87.88
2022-11-04T00:17:20.827Z,87.92
2022-11-04T00:18:20.908Z,87.82
2022-11-04T00:19:21.013Z,88.39
2022-11-04T00:20:21.054Z,88.33
2022-11-04T00:21:21.124Z,88.53
2022-11-04T00:22:21.200Z,88.43
2022-11-04T00:23:21.306Z,88.94
2022-11-04T00:24:21.400Z,88.94
2022-11-04T00:25:21.469Z,88.64
2022-11-04T00:26:21.534Z,88.84
2022-11-04T00:27:21.643Z,88.94
2022-11-04T00:28:21.708Z,88.94
2022-11-04T00:29:21.823Z,89.09
2022-11-04T00:30:21.899Z,89.29
2022-11-04T00:31:21.995Z,89.50
2022-11-04T00:32:22.063Z,89.59
2022-11-04T00:33:22.172Z,90.00
2022-11-04T00:34:22.265Z,90.21
2022-11-04T00:35:22.350Z,90.11
2022-11-04T00:36:22.428Z,90.21
2022-11-04T00:37:22.536Z,90.21
2022-11-04T00:38:22.617Z,90.00
2022-11-04T00:39:22.737Z,89.80
2022-11-04T00:40:22.817Z,89.59
2022-11-04T00:41:22.912Z,90.21
2022-11-04T00:42:22.995Z,90.11
2022-11-04T00:43:23.101Z,90.11
2022-11-04T00:44:23.195Z,90.21
2022-11-04T00:45:23.268Z,90.11
2022-11-04T00:46:23.343Z,89.80
2022-11-04T00:47:23.449Z,90.11
2022-11-04T00:48:23.525Z,90.00
2022-11-04T00:49:23.635Z,89.90
2022-11-04T00:50:23.676Z,90.00
2022-11-04T00:51:23.744Z,89.80
2022-11-04T00:52:23.805Z,89.90
2022-11-04T00:53:23.894Z,89.70
2022-11-04T00:54:23.999Z,89.59
2022-11-04T00:55:24.068Z,89.59
2022-11-04T00:56:24.143Z,89.59
2022-11-04T00:57:24.239Z,89.50
2022-11-04T00:58:24.311Z,89.39
2022-11-04T00:59:24.437Z,89.50
2022-11-04T01:00:24.477Z,89.39
2022-11-04T01:01:24.746Z,88.98
2022-11-04T01:02:24.824Z,88.78
2022-11-04T01:03:24.745Z,88.88
2022-11-04T01:04:24.844Z,88.98
2022-11-04T01:05:24.920Z,89.18
2022-11-04T01:06:25.000Z,89.39
2022-11-04T01:07:25.100Z,89.09
2022-11-04T01:08:25.175Z,89.29
2022-11-04T01:09:25.312Z,89.80
2022-11-04T01:10:25.356Z,89.50
2022-11-04T01:11:25.464Z,89.39
2022-11-04T01:12:25.543Z,89.50
2022-11-04T01:13:25.646Z,89.23
2022-11-04T01:14:25.748Z,89.64
2022-11-04T01:15:25.816Z,89.53
2022-11-04T01:16:25.880Z,89.64
2022-11-04T01:17:25.953Z,89.53
2022-11-04T01:18:26.031Z,90.15
2022-11-04T01:19:26.151Z,90.05
2022-11-04T01:20:26.198Z,89.64
2022-11-04T01:21:26.265Z,89.58
2022-11-04T01:22:26.343Z,90.09
2022-11-04T01:23:26.450Z,89.84
2022-11-04T01:24:26.551Z,89.53
2022-11-04T01:25:26.619Z,89.94
2022-11-04T01:26:26.697Z,89.78
2022-11-04T01:27:26.785Z,89.58
2022-11-04T01:28:26.866Z,89.58
2022-11-04T01:29:26.991Z,89.89
2022-11-04T01:30:27.036Z,90.50
2022-11-04T01:31:27.127Z,90.09
2022-11-04T01:32:27.193Z,89.68
2022-11-04T01:33:27.287Z,89.17
2022-11-04T01:34:27.371Z,88.76
2022-11-04T01:35:27.446Z,88.76
2022-11-04T01:36:27.526Z,88.76
2022-11-04T01:37:27.614Z,88.56
2022-11-04T01:38:27.694Z,89.06
2022-11-04T01:39:27.818Z,87.63
2022-11-04T01:40:27.853Z,87.43
2022-11-04T01:41:27.999Z,87.22
2022-11-04T01:42:28.039Z,86.30
2022-11-04T01:43:28.106Z,86.51
2022-11-04T01:44:28.195Z,85.99
2022-11-04T01:45:28.280Z,85.38
2022-11-04T01:46:28.344Z,86.71
2022-11-04T01:47:28.451Z,86.61
2022-11-04T01:48:28.517Z,86.81
2022-11-04T01:49:28.640Z,86.44
2022-11-04T01:50:28.676Z,86.65
2022-11-04T01:51:28.746Z,86.75
2022-11-04T01:52:28.825Z,87.26
2022-11-04T01:53:28.931Z,87.37
2022-11-04T01:54:29.035Z,87.10
2022-11-04T01:55:29.101Z,87.30
2022-11-04T01:56:29.166Z,87.41
2022-11-04T01:57:29.273Z,87.20
2022-11-04T01:58:29.348Z,87.30
2022-11-04T01:59:29.463Z,87.61
2022-11-04T02:00:29.502Z,87.71
2022-11-04T02:01:29.787Z,88.12
2022-11-04T02:02:29.785Z,87.92
2022-11-04T02:03:29.771Z,87.82
2022-11-04T02:04:29.863Z,88.02
2022-11-04T02:05:29.935Z,87.51
2022-11-04T02:06:30.015Z,87.10
2022-11-04T02:07:30.123Z,87.26
2022-11-04T02:08:30.201Z,87.10
2022-11-04T02:09:30.592Z,87.10
2022-11-04T02:10:30.355Z,87.30
2022-11-04T02:11:30.441Z,87.51
2022-11-04T02:12:30.535Z,87.61
2022-11-04T02:13:30.610Z,87.51
2022-11-04T02:14:30.724Z,87.16
2022-11-04T02:15:30.795Z,87.06
2022-11-04T02:16:30.863Z,86.65
2022-11-04T02:17:30.942Z,86.69
2022-11-04T02:18:31.050Z,86.58
2022-11-04T02:19:31.144Z,86.79
2022-11-04T02:20:31.231Z,86.69
2022-11-04T02:21:31.292Z,86.38
2022-11-04T02:22:31.385Z,86.99
2022-11-04T02:23:31.458Z,87.41
2022-11-04T02:24:31.576Z,87.20
2022-11-04T02:25:31.609Z,86.99
2022-11-04T02:26:31.716Z,87.30
2022-11-04T02:27:31.772Z,86.90
2022-11-04T02:28:31.872Z,86.90
2022-11-04T02:29:31.949Z,86.90
2022-11-04T02:30:32.017Z,86.18
2022-11-04T02:31:32.111Z,86.48
2022-11-04T02:32:32.182Z,86.48
2022-11-04T02:33:32.258Z,86.28
2022-11-04T02:34:32.373Z,85.97
2022-11-04T02:35:32.449Z,86.58
2022-11-04T02:36:32.531Z,86.48
2022-11-04T02:37:32.604Z,86.69
2022-11-04T02:38:32.690Z,86.38
2022-11-04T02:39:32.788Z,86.69
2022-11-04T02:40:32.848Z,86.48
2022-11-04T02:41:32.926Z,86.18
2022-11-04T02:42:33.019Z,86.38
2022-11-04T02:43:33.092Z,85.97
2022-11-04T02:44:33.209Z,85.97
2022-11-04T02:45:33.248Z,85.97
2022-11-04T02:46:33.345Z,86.28
2022-11-04T02:47:33.420Z,86.18
2022-11-04T02:48:33.509Z,85.97
2022-11-04T02:49:33.603Z,85.87
2022-11-04T02:50:33.663Z,85.36
2022-11-04T02:51:33.735Z,85.46
2022-11-04T02:52:33.830Z,85.46
2022-11-04T02:53:33.902Z,85.60
2022-11-04T02:54:34.021Z,85.80
2022-11-04T02:55:34.055Z,85.80
2022-11-04T02:56:34.148Z,86.42
2022-11-04T02:57:34.221Z,86.32
2022-11-04T02:58:34.318Z,86.01
2022-11-04T02:59:34.395Z,86.11
2022-11-04T03:00:34.457Z,86.22
2022-11-04T03:01:34.662Z,86.46
2022-11-04T03:02:34.701Z,86.66
2022-11-04T03:03:34.718Z,86.36
2022-11-04T03:04:34.835Z,86.77
2022-11-04T03:05:34.865Z,86.57
2022-11-04T03:06:34.959Z,86.66
2022-11-04T03:07:35.029Z,86.71
2022-11-04T03:08:35.108Z,86.60
2022-11-04T03:09:35.215Z,87.12
2022-11-04T03:10:35.280Z,87.32
2022-11-04T03:11:35.354Z,87.26
2022-11-04T03:12:35.448Z,87.57
2022-11-04T03:13:35.517Z,87.67
2022-11-04T03:14:35.624Z,87.88
2022-11-04T03:15:35.687Z,87.98
2022-11-04T03:16:35.781Z,88.23
2022-11-04T03:17:35.858Z,88.33
2022-11-04T03:18:35.956Z,88.53
2022-11-04T03:19:36.044Z,88.74
2022-11-04T03:20:36.116Z,88.95
2022-11-04T03:21:36.190Z,88.74
2022-11-04T03:22:36.282Z,88.53
2022-11-04T03:23:36.347Z,88.84
2022-11-04T03:24:36.455Z,88.84
2022-11-04T03:25:36.507Z,89.09
2022-11-04T03:26:36.587Z,89.56
2022-11-04T03:27:36.678Z,89.15
2022-11-04T03:28:36.773Z,88.78
2022-11-04T03:29:36.859Z,88.98
2022-11-04T03:30:36.921Z,89.19
2022-11-04T03:31:36.995Z,89.19
2022-11-04T03:32:37.073Z,89.29
2022-11-04T03:33:37.144Z,89.70
2022-11-04T03:34:37.252Z,89.75
2022-11-04T03:35:37.298Z,90.36
2022-11-04T03:36:37.375Z,90.83
2022-11-04T03:37:37.466Z,90.83
2022-11-04T03:38:37.543Z,90.83
2022-11-04T03:39:37.643Z,90.94
2022-11-04T03:40:37.705Z,91.04
2022-11-04T03:41:37.776Z,90.88
2022-11-04T03:42:37.857Z,90.78
2022-11-04T03:43:37.926Z,90.98
2022-11-04T03:44:38.032Z,91.19
2022-11-04T03:45:38.063Z,91.35
2022-11-04T03:46:38.149Z,91.45
2022-11-04T03:47:38.217Z,91.97
2022-11-04T03:48:38.298Z,91.76
2022-11-04T03:49:38.388Z,91.76
2022-11-04T03:50:38.449Z,91.76
2022-11-04T03:51:38.520Z,91.86
2022-11-04T03:52:38.602Z,91.80
2022-11-04T03:53:38.675Z,91.66
2022-11-04T03:54:38.790Z,91.49
2022-11-04T03:55:38.826Z,91.70
2022-11-04T03:56:38.919Z,91.49
2022-11-04T03:57:38.989Z,91.60
2022-11-04T03:58:39.101Z,92.01
2022-11-04T03:59:39.184Z,91.60
2022-11-04T04:00:39.253Z,91.39
2022-11-04T04:01:39.495Z,91.39
2022-11-04T04:02:39.406Z,91.49
2022-11-04T04:03:39.475Z,91.49
2022-11-04T04:04:39.583Z,91.19
2022-11-04T04:05:39.643Z,90.98
2022-11-04T04:06:39.744Z,90.88
2022-11-04T04:07:39.812Z,90.88
2022-11-04T04:08:40.009Z,91.08
2022-11-04T04:09:40.022Z,91.08
2022-11-04T04:10:40.079Z,90.78
2022-11-04T04:11:40.151Z,90.88
2022-11-04T04:12:40.238Z,91.19
2022-11-04T04:13:40.289Z,91.19
2022-11-04T04:14:40.396Z,91.70
2022-11-04T04:15:40.434Z,91.60
2022-11-04T04:16:40.526Z,91.49
2022-11-04T04:17:40.589Z,91.49
2022-11-04T04:18:40.682Z,91.49
2022-11-04T04:19:40.778Z,91.85
2022-11-04T04:20:40.844Z,92.05
2022-11-04T04:21:40.907Z,91.95
2022-11-04T04:22:41.000Z,92.05
2022-11-04T04:23:41.070Z,92.05
2022-11-04T04:24:41.192Z,92.05
2022-11-04T04:25:41.224Z,92.05
2022-11-04T04:26:41.316Z,91.85
2022-11-04T04:27:41.386Z,91.85
2022-11-04T04:28:41.484Z,91.95
2022-11-04T04:29:41.565Z,91.85
2022-11-04T04:30:41.629Z,91.44
2022-11-04T04:31:41.718Z,91.33
2022-11-04T04:32:41.782Z,91.64
2022-11-04T04:33:41.850Z,91.53
2022-11-04T04:34:41.952Z,92.05
2022-11-04T04:35:42.025Z,92.36
2022-11-04T04:36:42.108Z,92.46
2022-11-04T04:37:42.181Z,92.30
2022-11-04T04:38:42.278Z,92.61
2022-11-04T04:39:42.368Z,92.61
2022-11-04T04:40:42.448Z,92.61
2022-11-04T04:41:42.505Z,92.50
2022-11-04T04:42:42.601Z,92.61
2022-11-04T04:43:42.668Z,92.82
2022-11-04T04:44:42.787Z,93.02
2022-11-04T04:45:42.814Z,92.82
2022-11-04T04:46:42.911Z,92.71
2022-11-04T04:47:42.987Z,92.61
2022-11-04T04:48:43.076Z,92.61
2022-11-04T04:49:43.171Z,92.82
2022-11-04T04:50:43.236Z,92.82
2022-11-04T04:51:43.290Z,92.50
2022-11-04T04:52:43.385Z,92.46
2022-11-04T04:53:43.462Z,92.46
2022-11-04T04:54:43.578Z,92.50
2022-11-04T04:55:43.614Z,92.36
2022-11-04T04:56:43.709Z,92.16
2022-11-04T04:57:43.784Z,92.25
2022-11-04T04:58:43.879Z,92.40
2022-11-04T04:59:43.961Z,92.30
2022-11-04T05:00:44.023Z,92.40
2022-11-04T05:01:44.237Z,92.20
2022-11-04T05:02:44.278Z,91.78
2022-11-04T05:03:45.408Z,91.89
2022-11-04T05:04:44.374Z,92.10
2022-11-04T05:05:44.404Z,92.20
2022-11-04T05:06:44.504Z,92.30
2022-11-04T05:07:44.569Z,92.82
2022-11-04T05:08:44.666Z,92.71
2022-11-04T05:09:44.756Z,92.92
2022-11-04T05:10:44.826Z,93.02
2022-11-04T05:11:44.891Z,93.02
2022-11-04T05:12:44.979Z,93.02
2022-11-04T05:13:45.057Z,93.02
2022-11-04T05:14:45.169Z,92.92
2022-11-04T05:15:45.221Z,93.12
2022-11-04T05:16:45.312Z,92.92
2022-11-04T05:17:45.385Z,93.23
2022-11-04T05:18:45.485Z,93.12
2022-11-04T05:19:45.563Z,92.92
2022-11-04T05:20:45.631Z,92.92
2022-11-04T05:21:45.696Z,93.02
2022-11-04T05:22:45.788Z,93.12
2022-11-04T05:23:45.857Z,93.23
2022-11-04T05:24:45.973Z,93.12
2022-11-04T05:25:46.005Z,93.33
2022-11-04T05:26:46.098Z,93.23
2022-11-04T05:27:46.160Z,92.61
2022-11-04T05:28:46.256Z,92.61
2022-11-04T05:29:46.339Z,93.02
2022-11-04T05:30:46.418Z,93.12
2022-11-04T05:31:46.487Z,93.43
2022-11-04T05:32:46.578Z,93.33
2022-11-04T05:33:46.646Z,93.33
2022-11-04T05:34:46.751Z,93.74
2022-11-04T05:35:46.814Z,93.84
2022-11-04T05:36:46.896Z,93.64
2022-11-04T05:37:46.969Z,93.64
2022-11-04T05:38:47.065Z,93.54
2022-11-04T05:39:47.145Z,93.64
2022-11-04T05:40:47.209Z,93.54
2022-11-04T05:41:47.280Z,93.43
2022-11-04T05:42:47.359Z,93.43
2022-11-04T05:43:47.430Z,93.33
2022-11-04T05:44:47.542Z,93.12
2022-11-04T05:45:47.615Z,93.02
2022-11-04T05:46:47.712Z,93.23
2022-11-04T05:47:47.764Z,93.43
2022-11-04T05:48:47.857Z,93.43
2022-11-04T05:49:47.944Z,93.43
2022-11-04T05:50:48.037Z,93.54
2022-11-04T05:51:48.100Z,93.95
2022-11-04T05:52:48.182Z,93.74
2022-11-04T05:53:48.254Z,93.54
2022-11-04T05:54:48.371Z,93.33
2022-11-04T05:55:48.408Z,93.12
2022-11-04T05:56:48.499Z,93.12
2022-11-04T05:57:48.563Z,93.02
2022-11-04T05:58:48.657Z,92.44
2022-11-04T05:59:48.751Z,92.44
2022-11-04T06:00:48.812Z,92.55
2022-11-04T06:01:49.112Z,92.44
2022-11-04T06:02:49.196Z,92.34
2022-11-04T06:03:49.019Z,92.34
2022-11-04T06:04:49.140Z,92.24
2022-11-04T06:05:49.205Z,92.44
2022-11-04T06:06:49.303Z,92.44
2022-11-04T06:07:49.373Z,92.55
2022-11-04T06:08:49.480Z,92.96
2022-11-04T06:09:49.572Z,92.96
2022-11-04T06:10:49.613Z,92.96
2022-11-04T06:11:49.679Z,92.96
2022-11-04T06:12:49.782Z,92.96
2022-11-04T06:13:49.848Z,93.06
2022-11-04T06:14:49.937Z,93.16
2022-11-04T06:15:49.988Z,93.06
2022-11-04T06:16:50.080Z,93.21
2022-11-04T06:17:50.155Z,93.16
2022-11-04T06:18:50.246Z,93.48
2022-11-04T06:19:50.344Z,93.68
2022-11-04T06:20:50.430Z,93.52
2022-11-04T06:21:50.505Z,93.41
2022-11-04T06:22:50.588Z,93.52
2022-11-04T06:23:50.659Z,93.99
2022-11-04T06:24:50.762Z,94.09
2022-11-04T06:25:50.823Z,93.99
2022-11-04T06:26:50.915Z,93.88
2022-11-04T06:27:50.999Z,93.88
2022-11-04T06:28:51.067Z,93.99
2022-11-04T06:29:51.177Z,94.09
2022-11-04T06:30:51.241Z,94.20
2022-11-04T06:31:51.330Z,94.09
2022-11-04T06:32:51.403Z,93.88
2022-11-04T06:33:51.502Z,93.58
2022-11-04T06:34:51.594Z,93.48
2022-11-04T06:35:51.682Z,93.37
2022-11-04T06:36:51.744Z,93.37
2022-11-04T06:37:51.831Z,93.16
2022-11-04T06:38:51.897Z,92.96
2022-11-04T06:39:52.013Z,92.76
2022-11-04T06:40:52.073Z,92.96
2022-11-04T06:41:52.996Z,92.96
2022-11-04T06:42:52.192Z,92.96
2022-11-04T06:43:52.285Z,92.96
2022-11-04T06:44:52.372Z,93.37
2022-11-04T06:45:52.436Z,93.68
2022-11-04T06:46:52.507Z,93.84
2022-11-04T06:47:52.589Z,93.84
2022-11-04T06:48:52.651Z,93.95
2022-11-04T06:49:52.768Z,94.05
2022-11-04T06:50:52.805Z,94.05
2022-11-04T06:51:52.895Z,94.26
2022-11-04T06:52:52.947Z,94.15
2022-11-04T06:53:53.040Z,93.84
2022-11-04T06:54:53.134Z,93.59
2022-11-04T06:55:53.215Z,93.49
2022-11-04T06:56:53.279Z,93.39
2022-11-04T06:57:53.373Z,93.39
2022-11-04T06:58:53.445Z,93.70
2022-11-04T06:59:53.552Z,93.55
2022-11-04T07:00:53.719Z,93.55
2022-11-04T07:01:53.778Z,93.44
2022-11-04T07:02:53.804Z,93.24
2022-11-04T07:03:53.866Z,93.04
2022-11-04T07:04:54.007Z,93.04
2022-11-04T07:05:54.028Z,92.93
2022-11-04T07:06:54.101Z,92.89
2022-11-04T07:07:54.197Z,92.89
2022-11-04T07:08:54.272Z,92.79
2022-11-04T07:09:54.397Z,92.27
2022-11-04T07:10:54.429Z,92.17
2022-11-04T07:11:54.524Z,92.27
2022-11-04T07:12:54.599Z,92.27
2022-11-04T07:13:54.687Z,92.48
2022-11-04T07:14:54.775Z,92.23
2022-11-04T07:15:54.839Z,92.17
2022-11-04T07:16:54.951Z,92.13
2022-11-04T07:17:55.025Z,91.93
2022-11-04T07:18:55.092Z,92.13
2022-11-04T07:19:55.209Z,92.23
2022-11-04T07:20:55.242Z,91.88
2022-11-04T07:21:55.338Z,91.67
2022-11-04T07:22:55.408Z,91.27
2022-11-04T07:23:55.519Z,91.47
2022-11-04T07:24:55.603Z,91.67
2022-11-04T07:25:55.668Z,91.57
2022-11-04T07:26:55.806Z,91.78
2022-11-04T07:27:58.130Z,91.78
2022-11-04T07:28:55.918Z,91.99
2022-11-04T07:29:56.011Z,91.67
2022-11-04T07:30:56.075Z,92.08
2022-11-04T07:31:56.169Z,92.08
2022-11-04T07:32:56.244Z,92.08
2022-11-04T07:33:56.337Z,92.08
2022-11-04T07:34:56.423Z,92.08
2022-11-04T07:35:58.241Z,92.19
2022-11-04T07:36:56.542Z,92.19
2022-11-04T07:37:56.637Z,92.08
2022-11-04T07:38:56.709Z,92.19
2022-11-04T07:39:56.825Z,92.29
2022-11-04T07:40:56.859Z,92.29
2022-11-04T07:41:59.673Z,92.19
2022-11-04T07:42:57.008Z,91.94
2022-11-04T07:43:57.090Z,91.74
2022-11-04T07:44:57.187Z,91.53
2022-11-04T07:45:57.249Z,91.74
2022-11-04T07:46:57.336Z,91.53
2022-11-04T07:47:57.427Z,91.42
2022-11-04T07:48:57.503Z,91.33
2022-11-04T07:49:57.691Z,91.49
2022-11-04T07:50:57.653Z,91.38
2022-11-04T07:51:57.754Z,91.49
2022-11-04T07:52:57.807Z,91.59
2022-11-04T07:53:57.902Z,91.49
2022-11-04T07:54:57.995Z,91.49
2022-11-04T07:55:58.051Z,91.49
2022-11-04T07:56:58.113Z,91.59
2022-11-04T07:57:58.208Z,91.38
2022-11-04T07:58:58.287Z,90.97
2022-11-04T07:59:58.400Z,90.87
2022-11-04T08:00:58.470Z,90.97
2022-11-04T08:01:58.750Z,90.97
2022-11-04T08:02:58.700Z,90.97
2022-11-04T08:03:58.744Z,91.24
2022-11-04T08:04:58.834Z,91.24
2022-11-04T08:05:58.915Z,90.93
2022-11-04T08:06:58.983Z,90.62
2022-11-04T08:07:59.057Z,90.42
2022-11-04T08:08:59.169Z,90.32
2022-11-04T08:09:59.224Z,90.22
2022-11-04T08:10:59.255Z,90.32
2022-11-04T08:11:59.331Z,90.52
2022-11-04T08:12:59.399Z,90.62
2022-11-04T08:13:59.497Z,90.62
2022-11-04T08:14:59.600Z,90.62
2022-11-04T08:15:59.668Z,90.58
2022-11-04T08:16:59.736Z,90.07
2022-11-04T08:17:59.813Z,89.76
2022-11-04T08:18:59.878Z,89.92
2022-11-04T08:19:59.968Z,89.42
2022-11-04T08:21:00.005Z,89.06
2022-11-04T08:22:00.117Z,88.65
2022-11-04T08:23:00.175Z,88.31
2022-11-04T08:24:00.281Z,88.00
2022-11-04T08:25:00.393Z,87.76
2022-11-04T08:26:00.438Z,87.45
2022-11-04T08:27:00.506Z,86.90
2022-11-04T08:28:01.283Z,86.38
2022-11-04T08:29:00.672Z,85.42
2022-11-04T08:30:00.789Z,85.32
2022-11-04T08:31:00.835Z,85.32
2022-11-04T08:32:00.932Z,85.42
2022-11-04T08:33:01.009Z,85.69
2022-11-04T08:34:01.098Z,85.89
2022-11-04T08:35:01.197Z,85.28
2022-11-04T08:36:01.263Z,85.04
2022-11-04T08:37:01.337Z,84.41
2022-11-04T08:38:01.438Z,82.73
2022-11-04T08:39:07.348Z,80.47
2022-11-04T08:40:01.639Z,76.91
2022-11-04T08:41:01.667Z,73.97
2022-11-04T08:42:01.754Z,74.62
2022-11-04T08:43:01.825Z,75.22
2022-11-04T08:44:01.927Z,75.05
2022-11-04T08:45:02.038Z,75.87
2022-11-04T08:46:02.087Z,75.56
2022-11-04T08:47:02.163Z,75.93
2022-11-04T08:48:05.491Z,75.32
2022-11-04T08:49:07.087Z,74.85
2022-11-04T08:50:02.463Z,74.24
2022-11-04T08:51:02.500Z,75.05
2022-11-04T08:52:02.599Z,75.26
2022-11-04T08:53:02.675Z,75.67
2022-11-04T08:54:02.776Z,75.52
2022-11-04T08:55:02.863Z,75.83
2022-11-04T08:56:02.941Z,76.28
2022-11-04T08:57:03.008Z,76.58
2022-11-04T08:58:03.111Z,76.86
2022-11-04T08:59:03.178Z,77.97
2022-11-04T09:00:03.295Z,79.02
2022-11-04T09:01:03.331Z,78.62
2022-11-04T09:02:03.487Z,78.39
2022-11-04T09:03:03.480Z,78.80
2022-11-04T09:04:03.632Z,79.64
2022-11-04T09:05:03.675Z,79.47
2022-11-04T09:06:03.740Z,78.41
2022-11-04T09:07:07.846Z,78.11
2022-11-04T09:08:03.892Z,78.28
2022-11-04T09:09:03.968Z,78.17
2022-11-04T09:10:04.065Z,77.49
2022-11-04T09:11:04.143Z,76.24
2022-11-04T09:12:04.214Z,75.73
2022-11-04T09:13:04.287Z,76.10
2022-11-04T09:14:04.387Z,76.92
2022-11-04T09:15:04.473Z,76.72
2022-11-04T09:16:04.543Z,76.82
2022-11-04T09:17:04.617Z,76.55
2022-11-04T09:18:04.698Z,77.26
2022-11-04T09:19:04.772Z,76.95
2022-11-04T09:20:04.891Z,77.36
2022-11-04T09:21:04.938Z,78.11
2022-11-04T09:22:05.014Z,78.41
2022-11-04T09:23:05.082Z,78.25
2022-11-04T09:24:05.164Z,79.37
2022-11-04T09:25:05.260Z,79.00
2022-11-04T09:26:05.325Z,79.10
2022-11-04T09:27:05.400Z,79.91
2022-11-04T09:28:05.496Z,80.11
2022-11-04T09:29:05.567Z,79.81
2022-11-04T09:30:05.693Z,79.68
2022-11-04T09:31:05.753Z,79.27
2022-11-04T09:32:05.854Z,79.74
2022-11-04T09:33:06.088Z,79.94
2022-11-04T09:34:06.021Z,79.39
2022-11-04T09:35:06.120Z,79.16
2022-11-04T09:36:06.202Z,77.39
2022-11-04T09:37:06.275Z,75.36
2022-11-04T09:38:06.363Z,74.51
2022-11-04T09:39:06.415Z,74.58
2022-11-04T09:40:06.520Z,73.46
2022-11-04T09:41:06.577Z,70.86
2022-11-04T09:42:06.683Z,69.18
2022-11-04T09:43:07.145Z,69.34
2022-11-04T09:44:06.845Z,67.96
2022-11-04T09:45:21.082Z,69.34
2022-11-04T09:46:07.006Z,68.97
2022-11-04T09:47:07.066Z,69.98
2022-11-04T09:48:07.167Z,70.42
2022-11-04T09:49:07.242Z,71.20
2022-11-04T09:50:07.365Z,70.69
2022-11-04T09:51:12.926Z,70.83
2022-11-04T09:52:07.492Z,71.91
2022-11-04T09:53:07.912Z,73.06
2022-11-04T09:54:07.644Z,74.10
2022-11-04T09:55:07.729Z,74.85
2022-11-04T09:56:07.817Z,75.26
2022-11-04T09:57:07.889Z,76.03
2022-11-04T09:58:08.040Z,75.93
2022-11-04T09:59:08.034Z,75.87
2022-11-04T10:00:08.135Z,75.76
2022-11-04T10:01:08.203Z,75.80
2022-11-04T10:02:08.322Z,76.21
2022-11-04T10:03:08.678Z,76.51
2022-11-04T10:04:08.409Z,76.21
2022-11-04T10:05:08.514Z,76.21
2022-11-04T10:06:08.582Z,76.04
2022-11-04T10:07:08.656Z,76.04
2022-11-04T10:08:08.742Z,76.86
2022-11-04T10:09:08.818Z,77.36
2022-11-04T10:10:08.916Z,77.36
2022-11-04T10:11:08.950Z,77.26
2022-11-04T10:12:09.046Z,77.16
2022-11-04T10:13:09.450Z,77.33
2022-11-04T10:14:09.215Z,76.82
2022-11-04T10:15:09.295Z,75.70
2022-11-04T10:16:09.368Z,74.88
2022-11-04T10:17:09.441Z,75.60
2022-11-04T10:18:09.528Z,76.07
2022-11-04T10:19:09.602Z,75.46
2022-11-04T10:20:09.714Z,75.26
2022-11-04T10:21:09.751Z,74.68
2022-11-04T10:22:09.863Z,75.40
2022-11-04T10:23:10.346Z,75.80
2022-11-04T10:24:10.035Z,75.73
2022-11-04T10:25:10.108Z,76.55
2022-11-04T10:26:10.175Z,76.86
2022-11-04T10:27:10.252Z,77.16
2022-11-04T10:28:10.342Z,76.86
2022-11-04T10:29:10.418Z,77.26
2022-11-04T10:30:10.556Z,77.43
2022-11-04T10:31:10.596Z,77.12
2022-11-04T10:32:10.685Z,77.33
2022-11-04T10:33:11.153Z,77.63
2022-11-04T10:34:10.841Z,77.06
2022-11-04T10:35:10.942Z,75.94
2022-11-04T10:36:11.013Z,77.29
2022-11-04T10:37:11.085Z,78.11
2022-11-04T10:38:11.154Z,78.41
2022-11-04T10:39:11.228Z,77.91
2022-11-04T10:40:11.341Z,77.81
2022-11-04T10:41:11.408Z,78.35
2022-11-04T10:42:11.461Z,78.76
2022-11-04T10:43:11.878Z,77.84
2022-11-04T10:44:11.620Z,77.64
2022-11-04T10:45:11.714Z,77.64
2022-11-04T10:46:11.759Z,78.25
2022-11-04T10:47:11.835Z,78.96
2022-11-04T10:48:11.947Z,78.96
2022-11-04T10:49:11.990Z,79.47
2022-11-04T10:50:28.209Z,79.27
2022-11-04T10:51:12.146Z,79.50
2022-11-04T10:52:12.235Z,79.77
2022-11-04T10:53:12.490Z,80.79
2022-11-04T10:54:12.378Z,79.77
2022-11-04T10:55:12.471Z,80.08
2022-11-04T10:56:12.604Z,80.49
2022-11-04T10:57:12.639Z,80.38
2022-11-04T10:58:12.714Z,80.18
2022-11-04T10:59:16.302Z,80.29
2022-11-04T11:00:12.894Z,79.88
2022-11-04T11:01:15.177Z,79.16
2022-11-04T11:02:13.080Z,79.77
2022-11-04T11:03:13.069Z,80.38
2022-11-04T11:04:13.167Z,79.53
2022-11-04T11:05:13.260Z,79.53
2022-11-04T11:06:13.327Z,79.53
2022-11-04T11:07:13.400Z,79.43
2022-11-04T11:08:13.495Z,79.33
2022-11-04T11:09:13.559Z,79.23
2022-11-04T11:10:13.669Z,79.84
2022-11-04T11:11:13.699Z,79.63
2022-11-04T11:12:48.867Z,80.08
2022-11-04T11:13:13.844Z,79.27
2022-11-04T11:14:13.921Z,79.06
2022-11-04T11:15:14.761Z,78.89
2022-11-04T11:16:14.091Z,79.85
2022-11-04T11:17:14.168Z,80.56
2022-11-04T11:18:14.240Z,81.13
2022-11-04T11:19:14.315Z,81.24
2022-11-04T11:20:14.446Z,80.52
2022-11-04T11:21:14.494Z,80.52
2022-11-04T11:22:14.561Z,80.52
2022-11-04T11:23:14.641Z,80.63
2022-11-04T11:24:14.710Z,79.88
2022-11-04T11:25:14.817Z,80.08
2022-11-04T11:26:14.899Z,80.08
2022-11-04T11:27:14.936Z,80.04
2022-11-04T11:28:15.010Z,79.23
2022-11-04T11:29:15.084Z,79.02
2022-11-04T11:30:15.202Z,79.02
2022-11-04T11:31:15.251Z,78.99
2022-11-04T11:32:15.341Z,79.19
2022-11-04T11:33:15.415Z,78.95
2022-11-04T11:34:15.501Z,78.75
2022-11-04T11:35:15.580Z,80.37
2022-11-04T11:36:15.669Z,79.25
2022-11-04T11:37:15.743Z,78.95
2022-11-04T11:38:15.815Z,78.75
2022-11-04T11:39:15.890Z,78.95
2022-11-04T11:40:16.033Z,79.52
2022-11-04T11:41:24.718Z,79.66
2022-11-04T11:42:16.132Z,79.66
2022-11-04T11:43:16.197Z,78.34
2022-11-04T11:44:16.310Z,78.78
2022-11-04T11:45:16.403Z,79.50
2022-11-04T11:46:16.469Z,80.00
2022-11-04T11:47:16.528Z,79.50
2022-11-04T11:48:16.599Z,79.02
2022-11-04T11:49:16.677Z,78.52
2022-11-04T11:50:16.780Z,78.52
2022-11-04T11:51:19.045Z,77.91
2022-11-04T11:52:16.914Z,78.11
2022-11-04T11:53:16.997Z,77.91
2022-11-04T11:54:17.072Z,77.60
2022-11-04T11:55:17.181Z,77.40
2022-11-04T11:56:17.259Z,77.60
2022-11-04T11:57:22.320Z,78.11
2022-11-04T12:01:24.118Z,77.70
2022-11-04T12:02:17.841Z,79.13
2022-11-04T12:03:18.428Z,80.38
2022-11-04T12:06:18.542Z,81.30
2022-11-04T12:09:19.909Z,81.71
2022-11-04T12:10:30.155Z,82.32
2022-11-04T12:11:18.373Z,82.42
2022-11-04T12:12:18.459Z,82.01
2022-11-04T12:13:24.406Z,82.12
2022-11-04T12:14:18.617Z,82.73
2022-11-04T12:15:18.715Z,83.13
2022-11-04T12:16:18.801Z,83.13
2022-11-04T12:17:18.927Z,82.32
2022-11-04T12:18:18.953Z,82.66
2022-11-04T12:19:19.031Z,83.37
2022-11-04T12:20:19.126Z,83.34
2022-11-04T12:21:19.169Z,83.84
2022-11-04T12:22:19.251Z,83.44
2022-11-04T12:23:19.340Z,83.34
2022-11-04T12:24:19.402Z,83.64
2022-11-04T12:25:19.508Z,83.95
2022-11-04T12:26:19.559Z,83.54
2022-11-04T12:27:19.636Z,83.84
2022-11-04T12:28:19.709Z,83.44
2022-11-04T12:29:19.785Z,83.54
2022-11-04T12:30:25.946Z,83.44
2022-11-04T12:31:19.933Z,83.84
2022-11-04T12:32:20.003Z,82.87
2022-11-04T12:33:20.081Z,83.07
2022-11-04T12:34:20.166Z,83.48
2022-11-04T12:35:20.269Z,83.68
2022-11-04T12:36:20.317Z,83.98
2022-11-04T12:37:20.405Z,84.29
2022-11-04T12:38:20.468Z,84.80
2022-11-04T12:39:20.552Z,84.70
2022-11-04T12:40:20.702Z,84.50
2022-11-04T12:42:22.430Z,83.89
2022-11-04T12:43:20.876Z,84.19
2022-11-04T12:44:20.945Z,83.78
2022-11-04T12:45:21.046Z,83.78
2022-11-04T12:46:21.113Z,83.48
2022-11-04T12:47:21.187Z,83.07
2022-11-04T12:48:21.276Z,83.48
2022-11-04T12:49:21.351Z,83.68
2022-11-04T12:50:21.457Z,83.58
2022-11-04T12:51:21.479Z,82.50
2022-11-04T12:52:21.554Z,82.90
2022-11-04T12:53:21.631Z,83.42
2022-11-04T12:54:21.725Z,83.92
2022-11-04T12:55:21.814Z,83.86
2022-11-04T12:56:21.876Z,83.04
2022-11-04T12:57:21.945Z,82.27
2022-11-04T12:58:22.023Z,82.68
2022-11-04T12:59:22.099Z,82.68
2022-11-04T13:00:22.188Z,82.78
2022-11-04T13:01:22.412Z,83.29